GSIXT LFXA-LSGG
Flight info
| Callsign | GSIXT |
|---|---|
| Flight time | 0h 39m |
| Altitude | 7000 |
| Route | PAS |
| Aircraft | P28A/L-V/N |
Departure
| Time | 2026-04-26 08:26 |
|---|---|
| Airport | Ambérieu Air Base (BA 278) (LFXA) |
Arrival
| Time | 2026-04-26 09:05 |
|---|---|
| Airport | Geneva International Airport (LSGG) |
| Time | Latitude | Longitude | Altitude | Speed | Heading |
|---|---|---|---|---|---|
| 2026-04-26 08:15 | 45.98971 | 5.33575 | 804 ft | 0 kts | 189° |
| 2026-04-26 08:22 | 45.98968 | 5.33548 | 803 ft | 8 kts | 305° |
| 2026-04-26 08:22 | 45.99002 | 5.33476 | 802 ft | 8 kts | 297° |
| 2026-04-26 08:23 | 45.98993 | 5.33399 | 803 ft | 8 kts | 229° |
| 2026-04-26 08:23 | 45.98944 | 5.33365 | 804 ft | 8 kts | 192° |
| 2026-04-26 08:23 | 45.98888 | 5.33340 | 805 ft | 8 kts | 202° |
| 2026-04-26 08:23 | 45.98850 | 5.33279 | 804 ft | 9 kts | 252° |
| 2026-04-26 08:24 | 45.98865 | 5.33238 | 803 ft | 0 kts | 13° |
| 2026-04-26 08:24 | 45.98872 | 5.33240 | 803 ft | 9 kts | 14° |
| 2026-04-26 08:24 | 45.99088 | 5.33312 | 798 ft | 52 kts | 12° |
| 2026-04-26 08:24 | 45.99493 | 5.33442 | 873 ft | 59 kts | 8° |
| 2026-04-26 08:25 | 45.99898 | 5.33554 | 1024 ft | 61 kts | 1° |
| 2026-04-26 08:25 | 46.00344 | 5.33623 | 1179 ft | 67 kts | 360° |
| 2026-04-26 08:25 | 46.00835 | 5.33660 | 1191 ft | 78 kts | 7° |
| 2026-04-26 08:25 | 46.01409 | 5.33914 | 1334 ft | 83 kts | 12° |
| 2026-04-26 08:26 | 46.01967 | 5.34089 | 1538 ft | 80 kts | 8° |
| 2026-04-26 08:26 | 46.02514 | 5.34196 | 1781 ft | 78 kts | 3° |
| 2026-04-26 08:26 | 46.03015 | 5.34443 | 2040 ft | 76 kts | 38° |
| 2026-04-26 08:26 | 46.03288 | 5.35098 | 2233 ft | 80 kts | 67° |
| 2026-04-26 08:27 | 46.03391 | 5.35846 | 2434 ft | 79 kts | 80° |
| 2026-04-26 08:27 | 46.03458 | 5.36654 | 2786 ft | 82 kts | 78° |
| 2026-04-26 08:27 | 46.03530 | 5.37469 | 3126 ft | 81 kts | 75° |
| 2026-04-26 08:27 | 46.03645 | 5.38302 | 3412 ft | 84 kts | 66° |
| 2026-04-26 08:28 | 46.03770 | 5.39152 | 3656 ft | 81 kts | 75° |
| 2026-04-26 08:28 | 46.03914 | 5.39983 | 3994 ft | 82 kts | 78° |
| 2026-04-26 08:28 | 46.04002 | 5.40803 | 4408 ft | 82 kts | 76° |
| 2026-04-26 08:28 | 46.04140 | 5.41623 | 4682 ft | 83 kts | 73° |
| 2026-04-26 08:29 | 46.04301 | 5.42443 | 4880 ft | 84 kts | 71° |
| 2026-04-26 08:29 | 46.04418 | 5.43259 | 5012 ft | 82 kts | 76° |
| 2026-04-26 08:29 | 46.04493 | 5.44065 | 5146 ft | 80 kts | 80° |
| 2026-04-26 08:29 | 46.04580 | 5.44867 | 5275 ft | 83 kts | 80° |
| 2026-04-26 08:30 | 46.04652 | 5.45685 | 5460 ft | 86 kts | 78° |
| 2026-04-26 08:30 | 46.04758 | 5.46537 | 5720 ft | 85 kts | 75° |
| 2026-04-26 08:30 | 46.04884 | 5.47365 | 5916 ft | 82 kts | 73° |
| 2026-04-26 08:30 | 46.05020 | 5.48136 | 6066 ft | 78 kts | 70° |
| 2026-04-26 08:31 | 46.05165 | 5.48904 | 6189 ft | 79 kts | 71° |
| 2026-04-26 08:31 | 46.05323 | 5.49653 | 6300 ft | 77 kts | 70° |
| 2026-04-26 08:31 | 46.05483 | 5.50399 | 6502 ft | 78 kts | 69° |
| 2026-04-26 08:31 | 46.05631 | 5.51171 | 6611 ft | 80 kts | 71° |
| 2026-04-26 08:32 | 46.05774 | 5.51944 | 6724 ft | 80 kts | 71° |
| 2026-04-26 08:32 | 46.05936 | 5.52749 | 6896 ft | 86 kts | 66° |
| 2026-04-26 08:32 | 46.06153 | 5.53620 | 6986 ft | 101 kts | 67° |
| 2026-04-26 08:32 | 46.06383 | 5.54575 | 6996 ft | 103 kts | 71° |
| 2026-04-26 08:33 | 46.06602 | 5.55565 | 7019 ft | 104 kts | 73° |
| 2026-04-26 08:33 | 46.06734 | 5.56579 | 6973 ft | 104 kts | 77° |
| 2026-04-26 08:33 | 46.06925 | 5.57569 | 6931 ft | 102 kts | 71° |
| 2026-04-26 08:33 | 46.07153 | 5.58536 | 6908 ft | 99 kts | 68° |
| 2026-04-26 08:34 | 46.07394 | 5.59432 | 6948 ft | 94 kts | 67° |
| 2026-04-26 08:34 | 46.07627 | 5.60312 | 6966 ft | 95 kts | 73° |
| 2026-04-26 08:34 | 46.07742 | 5.61268 | 6941 ft | 97 kts | 77° |
| 2026-04-26 08:34 | 46.07909 | 5.62194 | 6971 ft | 93 kts | 72° |
| 2026-04-26 08:35 | 46.08085 | 5.63102 | 6971 ft | 94 kts | 71° |
| 2026-04-26 08:35 | 46.08266 | 5.63998 | 7001 ft | 94 kts | 71° |
| 2026-04-26 08:35 | 46.08471 | 5.64901 | 7040 ft | 93 kts | 66° |
| 2026-04-26 08:35 | 46.08719 | 5.65774 | 7066 ft | 94 kts | 64° |
| 2026-04-26 08:36 | 46.08991 | 5.66640 | 7087 ft | 99 kts | 61° |
| 2026-04-26 08:36 | 46.09253 | 5.67548 | 7298 ft | 95 kts | 69° |
| 2026-04-26 08:36 | 46.09383 | 5.68519 | 7273 ft | 101 kts | 76° |
| 2026-04-26 08:36 | 46.09549 | 5.69510 | 7260 ft | 101 kts | 72° |
| 2026-04-26 08:37 | 46.09776 | 5.70461 | 7277 ft | 104 kts | 65° |
| 2026-04-26 08:37 | 46.10055 | 5.71417 | 7359 ft | 103 kts | 64° |
| 2026-04-26 08:37 | 46.10364 | 5.72422 | 7403 ft | 115 kts | 72° |
| 2026-04-26 08:37 | 46.10580 | 5.73491 | 7377 ft | 113 kts | 72° |
| 2026-04-26 08:38 | 46.10814 | 5.74594 | 7283 ft | 114 kts | 71° |
| 2026-04-26 08:38 | 46.11059 | 5.75750 | 7254 ft | 121 kts | 74° |
| 2026-04-26 08:38 | 46.11286 | 5.76870 | 7224 ft | 115 kts | 74° |
| 2026-04-26 08:38 | 46.11506 | 5.78008 | 7113 ft | 122 kts | 70° |
| 2026-04-26 08:39 | 46.11679 | 5.78802 | 7134 ft | 122 kts | 70° |
| 2026-04-26 08:39 | 46.11939 | 5.79929 | 7159 ft | 116 kts | 68° |
| 2026-04-26 08:39 | 46.12224 | 5.81011 | 7048 ft | 121 kts | 68° |
| 2026-04-26 08:39 | 46.12515 | 5.82112 | 7072 ft | 115 kts | 66° |
| 2026-04-26 08:40 | 46.12816 | 5.83173 | 7005 ft | 113 kts | 65° |
| 2026-04-26 08:40 | 46.13105 | 5.84227 | 6919 ft | 115 kts | 68° |
| 2026-04-26 08:40 | 46.13312 | 5.85304 | 6946 ft | 104 kts | 75° |
| 2026-04-26 08:40 | 46.13463 | 5.86306 | 7037 ft | 104 kts | 75° |
| 2026-04-26 08:41 | 46.13618 | 5.87286 | 7114 ft | 99 kts | 76° |
| 2026-04-26 08:41 | 46.13768 | 5.88297 | 7030 ft | 105 kts | 74° |
| 2026-04-26 08:41 | 46.13945 | 5.89304 | 7054 ft | 103 kts | 73° |
| 2026-04-26 08:41 | 46.14189 | 5.90292 | 7062 ft | 105 kts | 70° |
| 2026-04-26 08:42 | 46.14464 | 5.91274 | 7110 ft | 111 kts | 66° |
| 2026-04-26 08:42 | 46.14753 | 5.92312 | 7168 ft | 112 kts | 68° |
| 2026-04-26 08:42 | 46.14940 | 5.93410 | 7188 ft | 111 kts | 75° |
| 2026-04-26 08:42 | 46.15143 | 5.94484 | 7130 ft | 109 kts | 70° |
| 2026-04-26 08:43 | 46.15414 | 5.95518 | 7086 ft | 111 kts | 65° |
| 2026-04-26 08:43 | 46.15673 | 5.96594 | 7115 ft | 116 kts | 71° |
| 2026-04-26 08:43 | 46.15879 | 5.97705 | 7055 ft | 116 kts | 75° |
| 2026-04-26 08:43 | 46.16070 | 5.98808 | 7056 ft | 111 kts | 72° |
| 2026-04-26 08:44 | 46.16313 | 5.99858 | 7019 ft | 109 kts | 69° |
| 2026-04-26 08:44 | 46.16496 | 6.00932 | 6928 ft | 109 kts | 75° |
| 2026-04-26 08:44 | 46.16683 | 6.01961 | 6898 ft | 106 kts | 71° |
| 2026-04-26 08:44 | 46.16840 | 6.02988 | 6876 ft | 104 kts | 79° |
| 2026-04-26 08:45 | 46.16969 | 6.04004 | 6882 ft | 99 kts | 76° |
| 2026-04-26 08:45 | 46.17142 | 6.04935 | 6954 ft | 93 kts | 59° |
| 2026-04-26 08:45 | 46.17633 | 6.05510 | 6983 ft | 92 kts | 17° |
| 2026-04-26 08:45 | 46.18271 | 6.05408 | 7012 ft | 97 kts | 338° |
| 2026-04-26 08:46 | 46.18756 | 6.04714 | 7021 ft | 102 kts | 302° |
| 2026-04-26 08:46 | 46.18827 | 6.03705 | 7053 ft | 108 kts | 256° |
| 2026-04-26 08:46 | 46.18336 | 6.02888 | 7050 ft | 111 kts | 213° |
| 2026-04-26 08:46 | 46.17738 | 6.02170 | 7063 ft | 111 kts | 220° |
| 2026-04-26 08:47 | 46.17189 | 6.01383 | 7082 ft | 112 kts | 231° |
| 2026-04-26 08:47 | 46.16695 | 6.00508 | 7072 ft | 112 kts | 231° |
| 2026-04-26 08:47 | 46.16163 | 5.99675 | 7059 ft | 113 kts | 227° |
| 2026-04-26 08:47 | 46.15641 | 5.98846 | 7101 ft | 111 kts | 229° |
| 2026-04-26 08:48 | 46.14996 | 5.98233 | 7138 ft | 113 kts | 197° |
| 2026-04-26 08:48 | 46.14232 | 5.98283 | 7202 ft | 110 kts | 155° |
| 2026-04-26 08:48 | 46.13661 | 5.98979 | 7170 ft | 110 kts | 119° |
| 2026-04-26 08:48 | 46.13523 | 6.00023 | 7177 ft | 106 kts | 79° |
| 2026-04-26 08:49 | 46.13867 | 6.00930 | 7200 ft | 103 kts | 46° |
| 2026-04-26 08:49 | 46.14356 | 6.01668 | 7219 ft | 102 kts | 46° |
| 2026-04-26 08:49 | 46.14856 | 6.02415 | 7158 ft | 104 kts | 46° |
| 2026-04-26 08:49 | 46.15353 | 6.03164 | 7097 ft | 104 kts | 46° |
| 2026-04-26 08:50 | 46.15860 | 6.03909 | 7067 ft | 105 kts | 45° |
| 2026-04-26 08:50 | 46.16379 | 6.04668 | 7043 ft | 105 kts | 45° |
| 2026-04-26 08:50 | 46.16899 | 6.05425 | 6950 ft | 109 kts | 43° |
| 2026-04-26 08:50 | 46.17501 | 6.06055 | 6908 ft | 106 kts | 21° |
| 2026-04-26 08:51 | 46.18783 | 6.05350 | 6857 ft | 108 kts | 305° |
| 2026-04-26 08:51 | 46.18937 | 6.04296 | 6882 ft | 110 kts | 271° |
| 2026-04-26 08:51 | 46.18628 | 6.03309 | 6920 ft | 111 kts | 225° |
| 2026-04-26 08:52 | 46.18032 | 6.02609 | 6944 ft | 110 kts | 219° |
| 2026-04-26 08:52 | 46.17453 | 6.01906 | 7008 ft | 108 kts | 223° |
| 2026-04-26 08:52 | 46.16964 | 6.01078 | 7028 ft | 108 kts | 235° |
| 2026-04-26 08:52 | 46.16513 | 6.00195 | 7018 ft | 110 kts | 233° |
| 2026-04-26 08:53 | 46.16045 | 5.99319 | 7018 ft | 110 kts | 234° |
| 2026-04-26 08:53 | 46.15588 | 5.98390 | 6972 ft | 115 kts | 239° |
| 2026-04-26 08:53 | 46.15017 | 5.97560 | 6907 ft | 119 kts | 210° |
| 2026-04-26 08:53 | 46.14241 | 5.97168 | 6825 ft | 118 kts | 192° |
| 2026-04-26 08:54 | 46.13441 | 5.96942 | 6668 ft | 116 kts | 188° |
| 2026-04-26 08:54 | 46.12642 | 5.96775 | 6513 ft | 116 kts | 185° |
| 2026-04-26 08:54 | 46.11843 | 5.96612 | 6346 ft | 116 kts | 189° |
| 2026-04-26 08:54 | 46.11035 | 5.96397 | 6231 ft | 119 kts | 188° |
| 2026-04-26 08:55 | 46.10209 | 5.96145 | 6105 ft | 122 kts | 191° |
| 2026-04-26 08:55 | 46.09392 | 5.95822 | 5946 ft | 120 kts | 199° |
| 2026-04-26 08:55 | 46.08711 | 5.95125 | 5825 ft | 123 kts | 225° |
| 2026-04-26 08:55 | 46.08120 | 5.94268 | 5682 ft | 119 kts | 227° |
| 2026-04-26 08:56 | 46.07563 | 5.93371 | 5525 ft | 120 kts | 231° |
| 2026-04-26 08:56 | 46.07028 | 5.92493 | 5392 ft | 113 kts | 230° |
| 2026-04-26 08:56 | 46.06506 | 5.91643 | 5154 ft | 115 kts | 231° |
| 2026-04-26 08:56 | 46.06227 | 5.90584 | 4966 ft | 115 kts | 271° |
| 2026-04-26 08:57 | 46.06484 | 5.89477 | 4909 ft | 121 kts | 308° |
| 2026-04-26 08:57 | 46.07044 | 5.88737 | 4869 ft | 105 kts | 333° |
| 2026-04-26 08:57 | 46.07727 | 5.88533 | 4828 ft | 98 kts | 5° |
| 2026-04-26 08:57 | 46.08382 | 5.88757 | 4814 ft | 99 kts | 27° |
| 2026-04-26 08:58 | 46.08988 | 5.89208 | 4832 ft | 95 kts | 33° |
| 2026-04-26 08:58 | 46.09467 | 5.89825 | 4795 ft | 88 kts | 45° |
| 2026-04-26 08:58 | 46.09843 | 5.90537 | 4781 ft | 90 kts | 53° |
| 2026-04-26 08:58 | 46.10241 | 5.91244 | 4805 ft | 91 kts | 48° |
| 2026-04-26 08:59 | 46.10690 | 5.91914 | 4773 ft | 101 kts | 45° |
| 2026-04-26 08:59 | 46.11230 | 5.92622 | 4704 ft | 106 kts | 40° |
| 2026-04-26 08:59 | 46.11786 | 5.93308 | 4541 ft | 105 kts | 39° |
| 2026-04-26 08:59 | 46.12335 | 5.93998 | 4382 ft | 105 kts | 43° |
| 2026-04-26 09:00 | 46.12843 | 5.94752 | 4251 ft | 104 kts | 45° |
| 2026-04-26 09:00 | 46.13326 | 5.95515 | 4138 ft | 102 kts | 47° |
| 2026-04-26 09:00 | 46.13801 | 5.96284 | 4038 ft | 103 kts | 48° |
| 2026-04-26 09:00 | 46.14311 | 5.97022 | 3898 ft | 106 kts | 43° |
| 2026-04-26 09:01 | 46.14846 | 5.97799 | 3854 ft | 111 kts | 45° |
| 2026-04-26 09:01 | 46.15394 | 5.98595 | 3716 ft | 113 kts | 45° |
| 2026-04-26 09:01 | 46.15950 | 5.99397 | 3509 ft | 112 kts | 44° |
| 2026-04-26 09:01 | 46.16467 | 6.00174 | 3324 ft | 102 kts | 48° |
| 2026-04-26 09:02 | 46.16943 | 6.00913 | 3151 ft | 98 kts | 47° |
| 2026-04-26 09:02 | 46.17400 | 6.01597 | 3044 ft | 95 kts | 43° |
| 2026-04-26 09:02 | 46.17881 | 6.02284 | 2911 ft | 99 kts | 43° |
| 2026-04-26 09:02 | 46.18390 | 6.02968 | 2777 ft | 100 kts | 43° |
| 2026-04-26 09:03 | 46.18886 | 6.03681 | 2606 ft | 104 kts | 46° |
| 2026-04-26 09:03 | 46.19392 | 6.04450 | 2426 ft | 104 kts | 46° |
| 2026-04-26 09:03 | 46.19889 | 6.05197 | 2250 ft | 102 kts | 45° |
| 2026-04-26 09:03 | 46.20396 | 6.05903 | 2096 ft | 101 kts | 44° |
| 2026-04-26 09:04 | 46.20886 | 6.06606 | 1973 ft | 97 kts | 46° |
| 2026-04-26 09:04 | 46.21346 | 6.07309 | 1824 ft | 95 kts | 45° |
| 2026-04-26 09:04 | 46.21810 | 6.07974 | 1675 ft | 94 kts | 45° |
| 2026-04-26 09:04 | 46.22256 | 6.08625 | 1579 ft | 83 kts | 47° |
| 2026-04-26 09:05 | 46.22638 | 6.09185 | 1457 ft | 71 kts | 45° |
| 2026-04-26 09:05 | 46.22939 | 6.09624 | 1410 ft | 52 kts | 45° |
| 2026-04-26 09:05 | 46.23153 | 6.09939 | 1406 ft | 30 kts | 44° |
| 2026-04-26 09:05 | 46.23286 | 6.10112 | 1410 ft | 21 kts | 17° |
| 2026-04-26 09:06 | 46.23372 | 6.10030 | 1407 ft | 15 kts | 317° |
| 2026-04-26 09:06 | 46.23452 | 6.09918 | 1405 ft | 17 kts | 314° |
| 2026-04-26 09:06 | 46.23479 | 6.09880 | 1404 ft | 5 kts | 330° |
| 2026-04-26 09:06 | 46.23529 | 6.09928 | 1404 ft | 9 kts | 11° |
| 2026-04-26 09:07 | 46.23567 | 6.09893 | 1404 ft | 0 kts | 317° |